sensor_id;sensor_type;location;lat;lon;timestamp;pressure;altitude;pressure_sealevel;temperature;humidity
5595;BME280;1003;48.002;7.788;2023-08-07T00:00:15;99080.94;;;13.23;100.00
5595;BME280;1003;48.002;7.788;2023-08-07T00:02:42;99077.53;;;13.26;100.00
5595;BME280;1003;48.002;7.788;2023-08-07T00:05:10;99075.81;;;13.26;100.00
5595;BME280;1003;48.002;7.788;2023-08-07T00:07:37;99085.09;;;13.26;100.00
5595;BME280;1003;48.002;7.788;2023-08-07T00:10:06;99085.88;;;13.28;100.00
5595;BME280;1003;48.002;7.788;2023-08-07T00:12:33;99078.25;;;13.31;100.00
5595;BME280;1003;48.002;7.788;2023-08-07T00:15:01;99085.69;;;13.37;100.00
5595;BME280;1003;48.002;7.788;2023-08-07T00:17:28;99082.19;;;13.43;100.00
5595;BME280;1003;48.002;7.788;2023-08-07T00:19:56;99076.34;;;13.41;100.00
5595;BME280;1003;48.002;7.788;2023-08-07T00:22:24;99083.09;;;13.38;100.00
5595;BME280;1003;48.002;7.788;2023-08-07T00:24:51;99082.28;;;13.38;100.00
5595;BME280;1003;48.002;7.788;2023-08-07T00:27:18;99070.56;;;13.35;100.00
5595;BME280;1003;48.002;7.788;2023-08-07T00:29:45;99073.13;;;13.34;100.00
5595;BME280;1003;48.002;7.788;2023-08-07T00:32:12;99073.34;;;13.25;100.00
5595;BME280;1003;48.002;7.788;2023-08-07T00:34:39;99063.22;;;13.26;100.00
5595;BME280;1003;48.002;7.788;2023-08-07T00:37:06;99065.72;;;13.26;100.00
5595;BME280;1003;48.002;7.788;2023-08-07T00:39:36;99066.44;;;13.31;100.00
5595;BME280;1003;48.002;7.788;2023-08-07T00:42:03;99070.59;;;13.34;100.00
5595;BME280;1003;48.002;7.788;2023-08-07T00:44:30;99069.75;;;13.35;100.00
5595;BME280;1003;48.002;7.788;2023-08-07T00:46:57;99073.00;;;13.38;100.00
5595;BME280;1003;48.002;7.788;2023-08-07T00:49:25;99065.44;;;13.40;100.00
5595;BME280;1003;48.002;7.788;2023-08-07T00:51:53;99066.13;;;13.45;100.00
5595;BME280;1003;48.002;7.788;2023-08-07T00:54:21;99059.31;;;13.49;100.00
5595;BME280;1003;48.002;7.788;2023-08-07T00:56:50;99061.06;;;13.47;100.00
5595;BME280;1003;48.002;7.788;2023-08-07T00:59:18;99065.16;;;13.51;100.00
5595;BME280;1003;48.002;7.788;2023-08-07T01:01:46;99065.94;;;13.53;100.00
5595;BME280;1003;48.002;7.788;2023-08-07T01:04:13;99070.19;;;13.52;100.00
5595;BME280;1003;48.002;7.788;2023-08-07T01:06:40;99069.34;;;13.52;100.00
5595;BME280;1003;48.002;7.788;2023-08-07T01:09:07;99070.13;;;13.54;100.00
5595;BME280;1003;48.002;7.788;2023-08-07T01:11:45;99074.31;;;13.55;100.00
5595;BME280;1003;48.002;7.788;2023-08-07T01:14:26;99080.13;;;13.58;100.00
5595;BME280;1003;48.002;7.788;2023-08-07T01:17:00;99076.72;;;13.59;100.00
5595;BME280;1003;48.002;7.788;2023-08-07T01:19:30;99082.66;;;13.58;100.00
5595;BME280;1003;48.002;7.788;2023-08-07T01:22:07;99070.81;;;13.60;100.00
5595;BME280;1003;48.002;7.788;2023-08-07T01:24:36;99072.44;;;13.63;100.00
5595;BME280;1003;48.002;7.788;2023-08-07T01:27:24;99080.09;;;13.60;100.00
5595;BME280;1003;48.002;7.788;2023-08-07T01:30:09;99092.69;;;13.61;100.00
5595;BME280;1003;48.002;7.788;2023-08-07T01:32:49;99094.50;;;13.56;100.00
5595;BME280;1003;48.002;7.788;2023-08-07T01:35:23;99090.38;;;13.52;100.00
5595;BME280;1003;48.002;7.788;2023-08-07T01:37:58;99094.75;;;13.46;100.00
5595;BME280;1003;48.002;7.788;2023-08-07T01:40:27;99091.44;;;13.42;100.00
5595;BME280;1003;48.002;7.788;2023-08-07T01:42:55;99094.06;;;13.37;100.00
5595;BME280;1003;48.002;7.788;2023-08-07T01:45:24;99093.28;;;13.35;100.00
5595;BME280;1003;48.002;7.788;2023-08-07T01:47:51;99089.00;;;13.39;100.00
5595;BME280;1003;48.002;7.788;2023-08-07T01:50:19;99084.84;;;13.36;100.00
5595;BME280;1003;48.002;7.788;2023-08-07T01:52:46;99091.56;;;13.37;100.00
5595;BME280;1003;48.002;7.788;2023-08-07T01:55:16;99089.81;;;13.39;100.00
5595;BME280;1003;48.002;7.788;2023-08-07T01:57:46;99086.56;;;13.36;100.00
5595;BME280;1003;48.002;7.788;2023-08-07T02:00:13;99089.81;;;13.39;100.00
5595;BME280;1003;48.002;7.788;2023-08-07T02:02:40;99078.06;;;13.40;100.00
5595;BME280;1003;48.002;7.788;2023-08-07T02:05:07;99082.19;;;13.43;100.00
5595;BME280;1003;48.002;7.788;2023-08-07T02:07:34;99080.59;;;13.38;100.00
5595;BME280;1003;48.002;7.788;2023-08-07T02:10:02;99080.78;;;13.31;100.00
5595;BME280;1003;48.002;7.788;2023-08-07T02:12:30;99080.94;;;13.23;100.00
5595;BME280;1003;48.002;7.788;2023-08-07T02:15:00;99077.69;;;13.17;100.00
5595;BME280;1003;48.002;7.788;2023-08-07T02:17:28;99070.22;;;13.12;100.00
5595;BME280;1003;48.002;7.788;2023-08-07T02:19:56;99071.19;;;13.06;100.00
5595;BME280;1003;48.002;7.788;2023-08-07T02:22:23;99072.97;;;13.03;100.00
5595;BME280;1003;48.002;7.788;2023-08-07T02:24:50;99067.19;;;12.98;100.00
5595;BME280;1003;48.002;7.788;2023-08-07T02:27:18;99060.34;;;13.03;100.00
5595;BME280;1003;48.002;7.788;2023-08-07T02:29:46;99056.91;;;13.05;100.00
5595;BME280;1003;48.002;7.788;2023-08-07T02:32:13;99057.69;;;13.07;100.00
5595;BME280;1003;48.002;7.788;2023-08-07T02:34:40;99055.94;;;13.11;100.00
5595;BME280;1003;48.002;7.788;2023-08-07T02:37:07;99061.81;;;13.13;100.00
5595;BME280;1003;48.002;7.788;2023-08-07T02:39:34;99064.31;;;13.13;100.00
5595;BME280;1003;48.002;7.788;2023-08-07T02:42:01;99052.53;;;13.13;100.00
5595;BME280;1003;48.002;7.788;2023-08-07T02:44:28;99054.91;;;13.21;100.00
5595;BME280;1003;48.002;7.788;2023-08-07T02:46:57;99054.03;;;13.24;100.00
5595;BME280;1003;48.002;7.788;2023-08-07T02:49:24;99049.66;;;13.29;100.00
5595;BME280;1003;48.002;7.788;2023-08-07T02:51:51;99052.19;;;13.30;100.00
5595;BME280;1003;48.002;7.788;2023-08-07T02:54:18;99052.97;;;13.32;100.00
5595;BME280;1003;48.002;7.788;2023-08-07T02:56:45;99047.91;;;13.32;100.00
5595;BME280;1003;48.002;7.788;2023-08-07T02:59:12;99046.13;;;13.37;100.00
5595;BME280;1003;48.002;7.788;2023-08-07T03:01:39;99045.28;;;13.37;100.00
5595;BME280;1003;48.002;7.788;2023-08-07T03:04:07;99042.69;;;13.40;100.00
5595;BME280;1003;48.002;7.788;2023-08-07T03:06:34;99040.91;;;13.44;100.00
5595;BME280;1003;48.002;7.788;2023-08-07T03:09:01;99047.59;;;13.46;100.00
5595;BME280;1003;48.002;7.788;2023-08-07T03:11:28;99044.16;;;13.49;100.00
5595;BME280;1003;48.002;7.788;2023-08-07T03:13:55;99039.97;;;13.48;100.00
5595;BME280;1003;48.002;7.788;2023-08-07T03:16:22;99040.81;;;13.48;100.00
5595;BME280;1003;48.002;7.788;2023-08-07T03:18:49;99042.34;;;13.54;100.00
5595;BME280;1003;48.002;7.788;2023-08-07T03:21:18;99044.94;;;13.52;100.00
5595;BME280;1003;48.002;7.788;2023-08-07T03:23:48;99051.69;;;13.52;100.00
5595;BME280;1003;48.002;7.788;2023-08-07T03:26:18;99046.63;;;13.50;100.00
5595;BME280;1003;48.002;7.788;2023-08-07T03:28:45;99044.09;;;13.52;100.00
5595;BME280;1003;48.002;7.788;2023-08-07T03:31:14;99042.41;;;13.52;100.00
5595;BME280;1003;48.002;7.788;2023-08-07T03:33:41;99037.31;;;13.54;100.00
5595;BME280;1003;48.002;7.788;2023-08-07T03:36:08;99037.41;;;13.51;100.00
5595;BME280;1003;48.002;7.788;2023-08-07T03:38:37;99035.72;;;13.50;100.00
5595;BME280;1003;48.002;7.788;2023-08-07T03:41:04;99025.56;;;13.53;100.00
5595;BME280;1003;48.002;7.788;2023-08-07T03:43:31;99028.97;;;13.50;100.00
5595;BME280;1003;48.002;7.788;2023-08-07T03:45:58;99024.00;;;13.47;100.00
5595;BME280;1003;48.002;7.788;2023-08-07T03:48:25;99028.25;;;13.45;100.00
5595;BME280;1003;48.002;7.788;2023-08-07T03:50:52;99024.06;;;13.46;100.00
5595;BME280;1003;48.002;7.788;2023-08-07T03:53:19;99018.91;;;13.49;100.00
5595;BME280;1003;48.002;7.788;2023-08-07T03:55:51;99022.25;;;13.51;100.00
5595;BME280;1003;48.002;7.788;2023-08-07T03:58:18;99030.59;;;13.53;100.00
5595;BME280;1003;48.002;7.788;2023-08-07T04:00:45;99034.00;;;13.52;100.00
5595;BME280;1003;48.002;7.788;2023-08-07T04:03:12;99033.28;;;13.45;100.00
5595;BME280;1003;48.002;7.788;2023-08-07T04:05:39;99035.91;;;13.42;100.00
5595;BME280;1003;48.002;7.788;2023-08-07T04:08:06;99037.56;;;13.43;100.00
5595;BME280;1003;48.002;7.788;2023-08-07T04:10:34;99031.72;;;13.41;100.00
5595;BME280;1003;48.002;7.788;2023-08-07T04:13:03;99029.16;;;13.43;100.00
5595;BME280;1003;48.002;7.788;2023-08-07T04:15:30;99046.78;;;13.44;100.00
5595;BME280;1003;48.002;7.788;2023-08-07T04:17:57;99042.63;;;13.43;100.00
5595;BME280;1003;48.002;7.788;2023-08-07T04:20:24;99038.25;;;13.50;100.00
5595;BME280;1003;48.002;7.788;2023-08-07T04:22:51;99044.25;;;13.44;100.00
5595;BME280;1003;48.002;7.788;2023-08-07T04:25:18;99042.56;;;13.46;100.00
5595;BME280;1003;48.002;7.788;2023-08-07T04:27:45;99043.28;;;13.50;100.00
5595;BME280;1003;48.002;7.788;2023-08-07T04:30:16;99047.63;;;13.45;100.00
5595;BME280;1003;48.002;7.788;2023-08-07T04:32:43;99048.50;;;13.44;100.00
5595;BME280;1003;48.002;7.788;2023-08-07T04:35:10;99041.00;;;13.41;100.00
5595;BME280;1003;48.002;7.788;2023-08-07T04:37:37;99041.06;;;13.37;100.00
5595;BME280;1003;48.002;7.788;2023-08-07T04:40:06;99038.53;;;13.37;100.00
5595;BME280;1003;48.002;7.788;2023-08-07T04:42:34;99035.88;;;13.44;100.00
5595;BME280;1003;48.002;7.788;2023-08-07T04:45:01;99044.31;;;13.43;100.00
5595;BME280;1003;48.002;7.788;2023-08-07T04:47:29;99057.00;;;13.39;100.00
5595;BME280;1003;48.002;7.788;2023-08-07T04:50:00;99045.91;;;13.47;100.00
5595;BME280;1003;48.002;7.788;2023-08-07T04:52:27;99055.03;;;13.52;100.00
5595;BME280;1003;48.002;7.788;2023-08-07T04:54:54;99059.41;;;13.46;100.00
5595;BME280;1003;48.002;7.788;2023-08-07T04:57:21;99053.47;;;13.47;100.00
5595;BME280;1003;48.002;7.788;2023-08-07T04:59:48;99058.44;;;13.50;100.00
5595;BME280;1003;48.002;7.788;2023-08-07T05:02:16;99059.31;;;13.49;100.00
5595;BME280;1003;48.002;7.788;2023-08-07T05:04:44;99071.06;;;13.50;100.00
5595;BME280;1003;48.002;7.788;2023-08-07T05:07:12;99068.38;;;13.57;100.00
5595;BME280;1003;48.002;7.788;2023-08-07T05:09:39;99060.91;;;13.53;100.00
5595;BME280;1003;48.002;7.788;2023-08-07T05:12:07;99066.00;;;13.51;100.00
5595;BME280;1003;48.002;7.788;2023-08-07T05:14:34;99068.53;;;13.51;100.00
5595;BME280;1003;48.002;7.788;2023-08-07T05:17:01;99070.22;;;13.49;100.00
5595;BME280;1003;48.002;7.788;2023-08-07T05:19:28;99069.44;;;13.47;100.00
5595;BME280;1003;48.002;7.788;2023-08-07T05:21:56;99072.88;;;13.45;100.00
5595;BME280;1003;48.002;7.788;2023-08-07T05:24:23;99080.47;;;13.43;100.00
5595;BME280;1003;48.002;7.788;2023-08-07T05:26:50;99069.41;;;13.49;100.00
5595;BME280;1003;48.002;7.788;2023-08-07T05:29:18;99060.13;;;13.51;100.00
5595;BME280;1003;48.002;7.788;2023-08-07T05:31:47;99064.22;;;13.55;100.00
5595;BME280;1003;48.002;7.788;2023-08-07T05:34:14;99061.63;;;13.58;100.00
5595;BME280;1003;48.002;7.788;2023-08-07T05:36:41;99064.94;;;13.60;100.00
5595;BME280;1003;48.002;7.788;2023-08-07T05:39:10;99059.00;;;13.61;100.00
5595;BME280;1003;48.002;7.788;2023-08-07T05:41:37;99065.59;;;13.68;100.00
5595;BME280;1003;48.002;7.788;2023-08-07T05:44:04;99065.59;;;13.66;100.00
5595;BME280;1003;48.002;7.788;2023-08-07T05:46:32;99068.84;;;13.72;100.00
5595;BME280;1003;48.002;7.788;2023-08-07T05:48:59;99066.25;;;13.75;100.00
5595;BME280;1003;48.002;7.788;2023-08-07T05:51:26;99066.22;;;13.76;100.00
5595;BME280;1003;48.002;7.788;2023-08-07T05:53:53;99075.06;;;13.92;100.00
5595;BME280;1003;48.002;7.788;2023-08-07T05:56:21;99075.66;;;14.02;100.00
5595;BME280;1003;48.002;7.788;2023-08-07T05:58:48;99078.97;;;14.04;100.00
5595;BME280;1003;48.002;7.788;2023-08-07T06:01:15;99082.06;;;14.15;100.00
5595;BME280;1003;48.002;7.788;2023-08-07T06:03:43;99096.97;;;14.25;100.00
5595;BME280;1003;48.002;7.788;2023-08-07T06:06:10;99099.97;;;14.39;100.00
5595;BME280;1003;48.002;7.788;2023-08-07T06:08:37;99099.22;;;14.35;100.00
5595;BME280;1003;48.002;7.788;2023-08-07T06:11:05;99108.38;;;14.39;100.00
5595;BME280;1003;48.002;7.788;2023-08-07T06:13:35;99109.66;;;14.56;100.00
5595;BME280;1003;48.002;7.788;2023-08-07T06:16:02;99118.97;;;14.55;100.00
5595;BME280;1003;48.002;7.788;2023-08-07T06:18:29;99131.53;;;14.58;100.00
5595;BME280;1003;48.002;7.788;2023-08-07T06:20:56;99138.91;;;14.66;100.00
5595;BME280;1003;48.002;7.788;2023-08-07T06:23:24;99144.53;;;14.76;100.00
5595;BME280;1003;48.002;7.788;2023-08-07T06:25:51;99151.06;;;14.83;100.00
5595;BME280;1003;48.002;7.788;2023-08-07T06:28:18;99153.69;;;14.80;100.00
5595;BME280;1003;48.002;7.788;2023-08-07T06:30:46;99150.59;;;14.70;100.00
5595;BME280;1003;48.002;7.788;2023-08-07T06:33:13;99156.53;;;14.69;100.00
5595;BME280;1003;48.002;7.788;2023-08-07T06:35:40;99171.66;;;14.70;100.00
5595;BME280;1003;48.002;7.788;2023-08-07T06:38:08;99175.78;;;14.73;100.00
5595;BME280;1003;48.002;7.788;2023-08-07T06:40:35;99179.09;;;14.77;100.00
5595;BME280;1003;48.002;7.788;2023-08-07T06:43:02;99181.44;;;14.83;100.00
5595;BME280;1003;48.002;7.788;2023-08-07T06:45:29;99185.72;;;14.81;100.00
5595;BME280;1003;48.002;7.788;2023-08-07T06:47:58;99195.72;;;14.85;100.00
5595;BME280;1003;48.002;7.788;2023-08-07T06:50:25;99207.53;;;14.85;100.00
5595;BME280;1003;48.002;7.788;2023-08-07T06:52:52;99210.91;;;14.85;100.00
5595;BME280;1003;48.002;7.788;2023-08-07T06:55:20;99217.63;;;14.86;100.00
5595;BME280;1003;48.002;7.788;2023-08-07T06:57:47;99224.41;;;14.84;100.00
5595;BME280;1003;48.002;7.788;2023-08-07T07:00:17;99227.66;;;14.89;100.00
5595;BME280;1003;48.002;7.788;2023-08-07T07:02:44;99229.16;;;14.96;100.00
5595;BME280;1003;48.002;7.788;2023-08-07T07:05:13;99233.53;;;14.90;100.00
5595;BME280;1003;48.002;7.788;2023-08-07T07:07:40;99232.22;;;15.08;100.00
5595;BME280;1003;48.002;7.788;2023-08-07T07:10:08;99238.84;;;15.12;100.00
5595;BME280;1003;48.002;7.788;2023-08-07T07:12:35;99242.75;;;15.23;100.00
5595;BME280;1003;48.002;7.788;2023-08-07T07:15:02;99246.53;;;15.38;100.00
5595;BME280;1003;48.002;7.788;2023-08-07T07:17:30;99254.41;;;15.59;100.00
5595;BME280;1003;48.002;7.788;2023-08-07T07:19:57;99253.97;;;15.74;100.00
5595;BME280;1003;48.002;7.788;2023-08-07T07:22:27;99267.28;;;15.81;100.00
5595;BME280;1003;48.002;7.788;2023-08-07T07:24:55;99274.56;;;15.91;100.00
5595;BME280;1003;48.002;7.788;2023-08-07T07:27:22;99277.53;;;16.06;100.00
5595;BME280;1003;48.002;7.788;2023-08-07T07:29:51;99293.19;;;16.18;100.00
5595;BME280;1003;48.002;7.788;2023-08-07T07:32:19;99297.28;;;16.22;100.00
5595;BME280;1003;48.002;7.788;2023-08-07T07:34:46;99306.59;;;16.22;100.00
5595;BME280;1003;48.002;7.788;2023-08-07T07:37:13;99312.38;;;16.27;100.00
5595;BME280;1003;48.002;7.788;2023-08-07T07:39:44;99328.53;;;16.23;100.00
5595;BME280;1003;48.002;7.788;2023-08-07T07:42:11;99334.56;;;16.20;100.00
5595;BME280;1003;48.002;7.788;2023-08-07T07:44:38;99326.78;;;16.25;100.00
5595;BME280;1003;48.002;7.788;2023-08-07T07:47:07;99328.88;;;16.12;100.00
5595;BME280;1003;48.002;7.788;2023-08-07T07:49:35;99328.81;;;16.14;100.00
5595;BME280;1003;48.002;7.788;2023-08-07T07:52:02;99334.56;;;16.20;100.00
5595;BME280;1003;48.002;7.788;2023-08-07T07:54:29;99326.00;;;16.23;100.00
5595;BME280;1003;48.002;7.788;2023-08-07T07:56:58;99316.47;;;16.31;100.00
5595;BME280;1003;48.002;7.788;2023-08-07T07:59:25;99317.72;;;16.44;100.00
5595;BME280;1003;48.002;7.788;2023-08-07T08:01:52;99311.13;;;16.65;100.00
5595;BME280;1003;48.002;7.788;2023-08-07T08:04:19;99310.81;;;16.76;100.00
5595;BME280;1003;48.002;7.788;2023-08-07T08:06:46;99315.63;;;16.84;100.00
5595;BME280;1003;48.002;7.788;2023-08-07T08:09:15;99318.84;;;16.89;100.00
5595;BME280;1003;48.002;7.788;2023-08-07T08:11:42;99313.59;;;16.93;100.00
5595;BME280;1003;48.002;7.788;2023-08-07T08:14:10;99321.69;;;17.04;100.00
5595;BME280;1003;48.002;7.788;2023-08-07T08:16:37;99327.00;;;16.72;100.00
5595;BME280;1003;48.002;7.788;2023-08-07T08:19:04;99338.31;;;16.62;100.00
5595;BME280;1003;48.002;7.788;2023-08-07T08:21:33;99346.53;;;16.43;100.00
5595;BME280;1003;48.002;7.788;2023-08-07T08:24:00;99337.81;;;16.50;100.00
5595;BME280;1003;48.002;7.788;2023-08-07T08:26:27;99335.50;;;16.71;100.00
5595;BME280;1003;48.002;7.788;2023-08-07T08:28:55;99343.31;;;16.91;100.00
5595;BME280;1003;48.002;7.788;2023-08-07T08:31:24;99342.38;;;17.19;100.00
5595;BME280;1003;48.002;7.788;2023-08-07T08:33:51;99348.13;;;17.24;100.00
5595;BME280;1003;48.002;7.788;2023-08-07T08:36:18;99352.22;;;17.03;100.00
5595;BME280;1003;48.002;7.788;2023-08-07T08:38:45;99346.28;;;16.77;100.00
5595;BME280;1003;48.002;7.788;2023-08-07T08:41:16;99343.97;;;16.70;100.00
5595;BME280;1003;48.002;7.788;2023-08-07T08:43:46;99332.31;;;16.64;100.00
5595;BME280;1003;48.002;7.788;2023-08-07T08:46:15;99330.69;;;16.62;100.00
5595;BME280;1003;48.002;7.788;2023-08-07T08:48:49;99325.38;;;16.71;100.00
5595;BME280;1003;48.002;7.788;2023-08-07T08:51:17;99312.94;;;16.88;100.00
5595;BME280;1003;48.002;7.788;2023-08-07T08:53:47;99307.03;;;17.13;100.00
5595;BME280;1003;48.002;7.788;2023-08-07T08:56:18;99304.28;;;17.42;100.00
5595;BME280;1003;48.002;7.788;2023-08-07T08:58:46;99303.03;;;17.77;100.00
5595;BME280;1003;48.002;7.788;2023-08-07T09:01:14;99315.09;;;17.94;100.00
5595;BME280;1003;48.002;7.788;2023-08-07T09:03:44;99318.81;;;18.07;100.00
5595;BME280;1003;48.002;7.788;2023-08-07T09:06:12;99326.59;;;18.69;100.00
5595;BME280;1003;48.002;7.788;2023-08-07T09:08:44;99331.56;;;19.12;100.00
5595;BME280;1003;48.002;7.788;2023-08-07T09:11:16;99355.31;;;19.52;100.00
5595;BME280;1003;48.002;7.788;2023-08-07T09:13:47;99358.19;;;19.65;100.00
5595;BME280;1003;48.002;7.788;2023-08-07T09:16:17;99373.78;;;19.38;100.00
5595;BME280;1003;48.002;7.788;2023-08-07T09:18:47;99379.72;;;19.58;100.00
5595;BME280;1003;48.002;7.788;2023-08-07T09:21:16;99388.66;;;19.68;100.00
5595;BME280;1003;48.002;7.788;2023-08-07T09:23:44;99388.19;;;19.58;100.00
5595;BME280;1003;48.002;7.788;2023-08-07T09:26:11;99386.88;;;19.50;100.00
5595;BME280;1003;48.002;7.788;2023-08-07T09:28:39;99394.28;;;19.75;100.00
5595;BME280;1003;48.002;7.788;2023-08-07T09:31:06;99403.91;;;19.70;100.00
5595;BME280;1003;48.002;7.788;2023-08-07T09:33:35;99403.03;;;19.69;100.00
5595;BME280;1003;48.002;7.788;2023-08-07T09:36:04;99405.34;;;19.55;100.00
5595;BME280;1003;48.002;7.788;2023-08-07T09:38:31;99411.84;;;19.41;100.00
5595;BME280;1003;48.002;7.788;2023-08-07T09:40:59;99411.56;;;19.49;100.00
5595;BME280;1003;48.002;7.788;2023-08-07T09:43:28;99408.81;;;19.33;100.00
5595;BME280;1003;48.002;7.788;2023-08-07T09:46:03;99413.34;;;19.06;100.00
5595;BME280;1003;48.002;7.788;2023-08-07T09:48:30;99421.25;;;19.00;100.00
5595;BME280;1003;48.002;7.788;2023-08-07T09:51:00;99419.59;;;18.55;100.00
5595;BME280;1003;48.002;7.788;2023-08-07T09:53:30;99416.69;;;18.43;100.00
5595;BME280;1003;48.002;7.788;2023-08-07T09:55:58;99421.63;;;18.47;100.00
5595;BME280;1003;48.002;7.788;2023-08-07T09:58:25;99423.38;;;18.69;100.00
5595;BME280;1003;48.002;7.788;2023-08-07T10:00:52;99419.59;;;18.77;100.00
5595;BME280;1003;48.002;7.788;2023-08-07T10:03:22;99417.22;;;19.15;100.00
5595;BME280;1003;48.002;7.788;2023-08-07T10:05:50;99418.38;;;19.49;100.00
5595;BME280;1003;48.002;7.788;2023-08-07T10:08:18;99420.59;;;19.56;100.00
5595;BME280;1003;48.002;7.788;2023-08-07T10:10:47;99416.66;;;19.70;100.00
5595;BME280;1003;48.002;7.788;2023-08-07T10:13:17;99414.34;;;19.63;100.00
5595;BME280;1003;48.002;7.788;2023-08-07T10:15:46;99415.69;;;19.52;100.00
5595;BME280;1003;48.002;7.788;2023-08-07T10:18:14;99424.22;;;19.90;100.00
5595;BME280;1003;48.002;7.788;2023-08-07T10:20:42;99430.22;;;20.27;100.00
5595;BME280;1003;48.002;7.788;2023-08-07T10:23:11;99422.13;;;20.74;100.00
5595;BME280;1003;48.002;7.788;2023-08-07T10:25:42;99423.47;;;20.98;100.00
5595;BME280;1003;48.002;7.788;2023-08-07T10:28:16;99420.97;;;21.14;100.00
5595;BME280;1003;48.002;7.788;2023-08-07T10:30:45;99413.78;;;21.05;100.00
5595;BME280;1003;48.002;7.788;2023-08-07T10:33:13;99427.44;;;20.86;100.00
5595;BME280;1003;48.002;7.788;2023-08-07T10:35:46;99420.69;;;20.68;100.00
5595;BME280;1003;48.002;7.788;2023-08-07T10:38:14;99418.34;;;20.81;100.00
5595;BME280;1003;48.002;7.788;2023-08-07T10:41:02;99425.09;;;20.64;100.00
5595;BME280;1003;48.002;7.788;2023-08-07T10:43:30;99428.34;;;20.68;100.00
5595;BME280;1003;48.002;7.788;2023-08-07T10:46:05;99415.38;;;20.90;100.00
5595;BME280;1003;48.002;7.788;2023-08-07T10:48:39;99409.88;;;21.15;100.00
5595;BME280;1003;48.002;7.788;2023-08-07T10:51:07;99408.44;;;21.27;100.00
5595;BME280;1003;48.002;7.788;2023-08-07T10:53:36;99409.34;;;21.43;100.00
5595;BME280;1003;48.002;7.788;2023-08-07T10:56:09;99403.53;;;21.22;100.00
5595;BME280;1003;48.002;7.788;2023-08-07T10:58:40;99396.19;;;20.98;100.00
5595;BME280;1003;48.002;7.788;2023-08-07T11:01:21;99405.34;;;21.20;100.00
5595;BME280;1003;48.002;7.788;2023-08-07T11:03:51;99402.66;;;21.06;100.00
5595;BME280;1003;48.002;7.788;2023-08-07T11:06:23;99402.38;;;20.77;100.00
5595;BME280;1003;48.002;7.788;2023-08-07T11:08:50;99395.97;;;20.68;100.00
5595;BME280;1003;48.002;7.788;2023-08-07T11:11:18;99392.34;;;21.07;100.00
5595;BME280;1003;48.002;7.788;2023-08-07T11:13:46;99377.44;;;21.66;100.00
5595;BME280;1003;48.002;7.788;2023-08-07T11:16:14;99389.19;;;21.37;100.00
5595;BME280;1003;48.002;7.788;2023-08-07T11:18:42;99378.78;;;21.40;100.00
5595;BME280;1003;48.002;7.788;2023-08-07T11:21:11;99390.84;;;21.38;100.00
5595;BME280;1003;48.002;7.788;2023-08-07T11:23:38;99389.03;;;21.40;100.00
5595;BME280;1003;48.002;7.788;2023-08-07T11:26:05;99383.31;;;21.17;100.00
5595;BME280;1003;48.002;7.788;2023-08-07T11:28:33;99382.41;;;21.18;100.00
5595;BME280;1003;48.002;7.788;2023-08-07T11:31:02;99378.25;;;20.83;100.00
5595;BME280;1003;48.002;7.788;2023-08-07T11:33:29;99387.31;;;20.71;100.00
5595;BME280;1003;48.002;7.788;2023-08-07T11:35:56;99385.56;;;20.54;100.00
5595;BME280;1003;48.002;7.788;2023-08-07T11:38:33;99377.09;;;20.54;100.00
5595;BME280;1003;48.002;7.788;2023-08-07T11:41:01;99381.22;;;20.56;100.00
5595;BME280;1003;48.002;7.788;2023-08-07T11:43:29;99379.72;;;20.69;100.00
5595;BME280;1003;48.002;7.788;2023-08-07T11:45:59;99371.03;;;20.74;100.00
5595;BME280;1003;48.002;7.788;2023-08-07T11:48:30;99375.97;;;21.11;100.00
5595;BME280;1003;48.002;7.788;2023-08-07T11:50:59;99370.63;;;21.33;100.00
5595;BME280;1003;48.002;7.788;2023-08-07T11:53:28;99366.78;;;21.58;100.00
5595;BME280;1003;48.002;7.788;2023-08-07T11:55:58;99368.84;;;21.51;100.00
5595;BME280;1003;48.002;7.788;2023-08-07T11:58:27;99366.59;;;21.45;100.00
5595;BME280;1003;48.002;7.788;2023-08-07T12:00:55;99367.06;;;21.69;100.00
5595;BME280;1003;48.002;7.788;2023-08-07T12:03:28;99361.44;;;21.94;100.00
5595;BME280;1003;48.002;7.788;2023-08-07T12:05:58;99361.38;;;21.80;100.00
5595;BME280;1003;48.002;7.788;2023-08-07T12:08:31;99361.66;;;21.58;100.00
5595;BME280;1003;48.002;7.788;2023-08-07T12:11:04;99360.81;;;21.41;100.00
5595;BME280;1003;48.002;7.788;2023-08-07T12:13:31;99361.94;;;21.36;100.00
5595;BME280;1003;48.002;7.788;2023-08-07T12:16:01;99361.66;;;21.42;100.00
5595;BME280;1003;48.002;7.788;2023-08-07T12:18:31;99358.50;;;21.37;100.00
5595;BME280;1003;48.002;7.788;2023-08-07T12:21:01;99357.09;;;21.47;100.00
5595;BME280;1003;48.002;7.788;2023-08-07T12:23:28;99362.03;;;21.99;100.00
5595;BME280;1003;48.002;7.788;2023-08-07T12:25:55;99349.81;;;22.36;100.00
5595;BME280;1003;48.002;7.788;2023-08-07T12:28:22;99355.38;;;22.88;100.00
5595;BME280;1003;48.002;7.788;2023-08-07T12:30:51;99357.63;;;22.48;100.00
5595;BME280;1003;48.002;7.788;2023-08-07T12:33:19;99350.72;;;22.35;100.00
5595;BME280;1003;48.002;7.788;2023-08-07T12:35:47;99358.91;;;22.25;100.00
5595;BME280;1003;48.002;7.788;2023-08-07T12:38:15;99357.75;;;22.15;100.00
5595;BME280;1003;48.002;7.788;2023-08-07T12:40:43;99359.31;;;22.02;100.00
5595;BME280;1003;48.002;7.788;2023-08-07T12:43:10;99358.88;;;21.62;100.00
5595;BME280;1003;48.002;7.788;2023-08-07T12:45:37;99361.16;;;21.01;100.00
5595;BME280;1003;48.002;7.788;2023-08-07T12:48:05;99359.06;;;20.57;100.00
5595;BME280;1003;48.002;7.788;2023-08-07T12:50:33;99357.41;;;20.19;100.00
5595;BME280;1003;48.002;7.788;2023-08-07T12:53:02;99358.13;;;20.04;100.00
5595;BME280;1003;48.002;7.788;2023-08-07T12:55:29;99359.44;;;20.30;100.00
5595;BME280;1003;48.002;7.788;2023-08-07T12:57:56;99359.00;;;20.58;100.00
5595;BME280;1003;48.002;7.788;2023-08-07T13:00:24;99351.31;;;20.93;100.00
5595;BME280;1003;48.002;7.788;2023-08-07T13:02:53;99357.22;;;21.28;100.00
5595;BME280;1003;48.002;7.788;2023-08-07T13:05:22;99352.91;;;21.46;100.00
5595;BME280;1003;48.002;7.788;2023-08-07T13:07:49;99358.63;;;21.67;100.00
5595;BME280;1003;48.002;7.788;2023-08-07T13:10:20;99357.47;;;21.72;100.00
5595;BME280;1003;48.002;7.788;2023-08-07T13:12:48;99363.47;;;21.56;100.00
5595;BME280;1003;48.002;7.788;2023-08-07T13:15:17;99377.38;;;21.34;100.00